Time;durP1;ratioP1;P1;durP2;ratioP2;P2;SDS_P1;SDS_P2;PMS_P1;PMS_P2;Temp;Humidity;BMP_temperature;BMP_pressure;BME280_temperature;BME280_humidity;BME280_pressure;Samples;Min_cycle;Max_cycle;Signal;HPM_P1;HPM_P2
2023/07/14 00:05:36;;;;;;;6.30;5.60;;;;;;;16.03;77.96;98664.46;435224;1256;99270;-42
2023/07/14 00:15:44;;;;;;;14.30;5.60;;;;;;;15.97;78.48;98681.31;434898;1256;387890;-42
2023/07/14 00:25:51;;;;;;;13.10;7.20;;;;;;;15.92;78.88;98678.48;435296;1251;107410;-43
2023/07/14 00:35:58;;;;;;;10.50;6.80;;;;;;;15.82;78.93;98685.05;435223;1255;99244;-42
2023/07/14 00:46:06;;;;;;;8.60;7.70;;;;;;;15.74;79.16;98687.54;435142;1255;108543;-42
2023/07/14 00:56:26;;;;;;;10.40;7.00;;;;;;;15.64;79.30;98690.59;435221;1256;99221;-43
2023/07/14 01:06:34;;;;;;;9.30;7.20;;;;;;;15.65;79.73;98694.18;435380;1251;114116;-42
2023/07/14 01:16:42;;;;;;;8.60;7.70;;;;;;;15.64;79.95;98696.45;436067;1256;108451;-43
2023/07/14 01:26:57;;;;;;;8.90;8.00;;;;;;;15.52;80.06;98701.16;435216;1257;99259;-42
2023/07/14 01:37:04;;;;;;;12.50;8.00;;;;;;;15.42;80.35;98718.87;435328;1251;107013;-42
2023/07/14 01:47:14;;;;;;;9.00;7.70;;;;;;;15.33;80.52;98733.77;435194;1256;98823;-45
2023/07/14 01:57:26;;;;;;;12.20;7.60;;;;;;;15.28;80.69;98747.19;435345;1252;110991;-42
2023/07/14 02:07:34;;;;;;;12.30;7.60;;;;;;;15.27;80.82;98746.55;435338;1251;107491;-43
2023/07/14 02:17:39;;;;;;;8.50;6.50;;;;;;;15.27;80.93;98751.60;435216;1255;99222;-43
2023/07/14 02:27:47;;;;;;;8.50;6.40;;;;;;;15.31;80.85;98763.08;435214;1254;108688;-43
2023/07/14 02:58:17;;;;;;;6.60;6.00;;;;;;;15.13;80.54;98798.22;435149;1251;107408;-44
2023/07/14 03:08:23;;;;;;;;;;;;;;;15.19;80.48;98812.34;435327;1256;99219;-42
2023/07/14 03:18:30;;;;;;;8.50;5.60;;;;;;;15.34;80.55;98806.59;435248;1256;109304;-42
2023/07/14 03:28:38;;;;;;;6.40;5.50;;;;;;;15.61;80.52;98808.80;435260;1251;98833;-41
2023/07/14 03:38:46;;;;;;;6.70;4.30;;;;;;;16.84;79.82;98818.15;435209;1251;111967;-44
2023/07/14 03:48:52;;;;;;;5.10;4.50;;;;;;;18.17;78.65;98818.45;435373;1251;107485;-42
2023/07/14 03:58:59;;;;;;;6.70;4.80;;;;;;;19.42;77.29;98804.16;435303;1257;99189;-43
2023/07/14 04:09:07;;;;;;;4.20;3.80;;;;;;;20.66;75.68;98804.30;435254;1253;107743;-43
2023/07/14 04:19:14;;;;;;;5.90;4.50;;;;;;;21.80;73.90;98815.34;435396;1252;98830;-44
2023/07/14 04:29:20;;;;;;;;;;;;;;;22.74;72.33;98825.81;435354;1255;110562;-42
2023/07/14 04:39:29;;;;;;;4.20;3.10;;;;;;;23.43;70.84;98829.66;435209;1251;107154;-42
2023/07/14 04:49:37;;;;;;;6.20;3.50;;;;;;;24.07;69.68;98835.43;435332;1254;98338;-42
2023/07/14 04:59:43;;;;;;;11.40;3.30;;;;;;;24.55;68.07;98847.60;435503;1255;108436;-41
2023/07/14 05:09:50;;;;;;;3.90;3.10;;;;;;;24.60;66.82;98863.13;435230;1255;97992;-44
2023/07/14 05:30:02;;;;;;;3.20;2.50;;;;;;;24.32;64.91;98866.74;435367;1256;108720;-41
2023/07/14 05:40:11;;;;;;;5.80;3.30;;;;;;;24.23;64.11;98883.08;435505;1251;97969;-43
2023/07/14 05:50:17;;;;;;;8.70;2.90;;;;;;;24.36;63.71;98891.52;435340;1256;106118;-43
2023/07/14 06:10:30;;;;;;;6.30;3.50;;;;;;;25.05;61.81;98889.84;435314;1251;110530;-42
2023/07/14 06:20:35;;;;;;;;;;;;;;;24.91;60.71;98886.35;435359;1254;108572;-43
2023/07/14 06:30:42;;;;;;;8.70;3.40;;;;;;;24.64;60.53;98884.04;435445;1251;99311;-42
2023/07/14 06:40:56;;;;;;;7.60;3.90;;;;;;;24.66;60.45;98888.67;435382;1254;108907;-41
2023/07/14 06:51:02;;;;;;;6.00;3.30;;;;;;;25.34;59.87;98900.46;435401;1251;99243;-42
2023/07/14 07:01:10;;;;;;;5.20;3.10;;;;;;;25.70;58.30;98900.36;435422;1251;111923;-43
2023/07/14 07:11:17;;;;;;;5.00;2.80;;;;;;;25.97;58.08;98902.41;435177;1251;107666;-42
2023/07/14 07:21:23;;;;;;;4.00;2.60;;;;;;;26.43;57.35;98904.98;435296;1251;98814;-43
2023/07/14 07:31:30;;;;;;;5.90;2.70;;;;;;;26.65;55.92;98906.94;435314;1255;108006;-43
2023/07/14 07:41:39;;;;;;;5.10;3.50;;;;;;;26.70;54.03;98910.99;435334;1251;99858;-42
2023/07/14 07:51:48;;;;;;;7.10;2.50;;;;;;;26.74;52.95;98918.53;435283;1256;112215;-43
2023/07/14 08:01:56;;;;;;;3.30;2.50;;;;;;;26.91;52.49;98917.67;435196;1257;107911;-42
2023/07/14 08:12:04;;;;;;;6.10;2.00;;;;;;;26.97;51.71;98920.36;435471;1256;98916;-43
2023/07/14 08:22:11;;;;;;;8.90;2.40;;;;;;;26.98;50.23;98925.88;435334;1255;108443;-43
2023/07/14 08:32:18;;;;;;;4.60;2.00;;;;;;;26.36;49.80;98922.91;435272;1251;97979;-41
2023/07/14 08:42:27;;;;;;;4.50;2.70;;;;;;;26.75;49.45;98917.95;435319;1251;111469;-41
2023/07/14 08:52:38;;;;;;;3.40;1.80;;;;;;;27.11;49.02;98906.32;435249;1251;107848;-44
2023/07/14 09:02:46;;;;;;;4.50;1.80;;;;;;;27.40;47.97;98905.73;435432;1256;99247;-43
2023/07/14 09:12:56;;;;;;;4.60;1.70;;;;;;;27.59;47.73;98910.20;435342;1256;106863;-41
2023/07/14 09:23:03;;;;;;;3.90;1.90;;;;;;;27.79;46.32;98908.21;435366;1251;97973;-42
2023/07/14 09:33:13;;;;;;;2.20;1.80;;;;;;;27.71;44.65;98895.57;435317;1255;110876;-42
2023/07/14 09:53:28;;;;;;;5.00;1.60;;;;;;;27.26;44.58;98895.73;435385;1257;99212;-41
2023/07/14 10:03:42;;;;;;;3.20;2.20;;;;;;;27.63;44.05;98892.11;435554;1255;107260;-43
2023/07/14 10:13:57;;;;;;;4.40;1.70;;;;;;;27.81;43.95;98889.79;435521;1256;99212;-42
2023/07/14 10:34:25;;;;;;;2.90;1.30;;;;;;;27.89;42.10;98881.73;435324;1251;107966;-41
2023/07/14 10:44:37;;;;;;;10.40;2.20;;;;;;;27.84;42.13;98879.48;435414;1256;98298;-42
2023/07/14 10:54:47;;;;;;;2.30;1.40;;;;;;;27.85;41.92;98873.79;435311;1257;106821;-42
2023/07/14 11:04:57;;;;;;;1.30;1.20;;;;;;;27.42;42.25;98866.94;435422;1254;99243;-43
2023/07/14 11:15:05;;;;;;;3.60;1.40;;;;;;;27.73;42.11;98855.77;435340;1254;111084;-42
2023/07/14 11:45:37;;;;;;;1.90;1.40;;;;;;;27.84;41.79;98842.91;435261;1251;108633;-41
2023/07/14 11:55:46;;;;;;;4.80;1.40;;;;;;;26.97;40.97;98843.52;435387;1251;99128;-42
2023/07/14 12:06:17;;;;;;;5.90;1.30;;;;;;;26.93;41.96;98844.30;435347;1255;111217;-41
2023/07/14 12:16:24;;;;;;;4.00;1.70;;;;;;;27.59;41.61;98831.58;433826;1251;2145482;-43
2023/07/14 12:26:31;;;;;;;2.70;1.30;;;;;;;28.34;40.79;98819.02;435254;1256;99272;-42
2023/07/14 12:36:41;;;;;;;4.20;1.30;;;;;;;28.00;38.71;98805.91;435264;1251;108506;-42
2023/07/14 12:46:48;;;;;;;1.60;1.20;;;;;;;27.78;38.34;98792.34;435177;1251;99221;-42
2023/07/14 12:56:56;;;;;;;4.80;1.50;;;;;;;27.91;38.37;98782.38;435359;1256;111040;-43
2023/07/14 13:17:13;;;;;;;4.90;1.20;;;;;;;27.74;39.11;98776.30;435206;1257;99253;-42
2023/07/14 13:27:18;;;;;;;1.60;1.50;;;;;;;27.39;39.31;98770.30;435297;1251;109089;-41
2023/07/14 13:47:39;;;;;;;3.60;1.40;;;;;;;26.83;39.92;98758.34;435453;1265;111263;-43
2023/07/14 13:57:47;;;;;;;2.00;1.90;;;;;;;26.65;39.90;98751.96;435157;1256;107404;-42
2023/07/14 14:18:03;;;;;;;8.10;1.80;;;;;;;26.33;40.45;98744.96;435325;1257;108559;-41
2023/07/14 14:28:11;;;;;;;9.20;2.00;;;;;;;26.33;40.20;98734.34;435383;1257;99235;-41
2023/07/14 14:38:21;;;;;;;2.40;1.60;;;;;;;26.25;40.53;98726.98;435331;1256;110670;-42
2023/07/14 14:48:48;;;;;;;2.60;1.80;;;;;;;26.40;40.52;98728.05;435332;1264;109792;-41
2023/07/14 14:59:04;;;;;;;2.50;1.50;;;;;;;26.70;39.88;98714.33;435333;1256;98803;-42
2023/07/14 15:09:11;;;;;;;3.70;1.60;;;;;;;26.86;39.90;98705.20;435230;1257;108716;-41
2023/07/14 15:19:18;;;;;;;2.30;1.50;;;;;;;26.79;39.77;98698.23;435281;1257;97992;-45
2023/07/14 15:29:25;;;;;;;4.00;1.80;;;;;;;26.75;39.74;98691.63;435273;1254;112094;-45
2023/07/14 15:39:32;;;;;;;4.20;1.70;;;;;;;26.70;39.46;98687.48;435225;1251;107667;-41
2023/07/14 15:49:40;;;;;;;4.00;1.70;;;;;;;26.46;39.54;98686.02;435367;1256;97949;-41
2023/07/14 15:59:47;;;;;;;3.00;1.90;;;;;;;26.28;39.52;98684.73;435262;1257;108016;-42
2023/07/14 16:09:53;;;;;;;4.40;1.90;;;;;;;25.83;39.68;98680.19;435070;1257;98886;-42
2023/07/14 16:19:57;;;;;;;1.50;1.40;;;;;;;25.77;40.12;98678.38;435351;1256;112534;-42
2023/07/14 16:30:11;;;;;;;2.60;1.60;;;;;;;25.80;39.98;98677.06;435703;1251;108462;-41
2023/07/14 16:40:21;;;;;;;5.80;1.60;;;;;;;25.92;40.25;98678.89;435305;1256;99256;-40
2023/07/14 16:50:29;;;;;;;3.20;1.90;;;;;;;25.90;40.04;98678.76;435230;1251;108169;-42
2023/07/14 17:00:36;;;;;;;8.20;2.20;;;;;;;25.62;40.57;98671.54;435337;1256;97916;-41
2023/07/14 17:10:43;;;;;;;5.00;1.60;;;;;;;25.28;40.54;98671.48;435357;1251;111238;-41
2023/07/14 17:20:49;;;;;;;;;;;;;;;25.08;41.59;98675.16;435409;1251;107816;-42
2023/07/14 17:30:57;;;;;;;6.10;1.90;;;;;;;24.94;42.73;98672.70;435396;1257;97970;-42
2023/07/14 17:41:02;;;;;;;;;;;;;;;24.69;43.39;98667.24;435300;1264;109395;-41
2023/07/14 17:51:12;;;;;;;5.40;1.70;;;;;;;24.32;44.12;98661.91;435301;1257;99224;-40
2023/07/14 18:01:20;;;;;;;3.80;1.80;;;;;;;23.96;44.54;98662.73;435384;1252;111220;-41
2023/07/14 18:11:25;;;;;;;;;;;;;;;23.59;45.26;98666.04;435378;1257;107855;-41
2023/07/14 18:21:32;;;;;;;4.40;2.80;;;;;;;23.27;45.54;98666.75;435109;1254;99346;-42
2023/07/14 18:31:38;;;;;;;5.70;2.90;;;;;;;23.12;45.78;98661.59;435263;1251;109642;-43
2023/07/14 18:41:46;;;;;;;8.60;3.80;;;;;;;22.99;46.38;98667.29;435249;1251;99290;-43
2023/07/14 18:51:54;;;;;;;8.60;3.30;;;;;;;22.79;46.96;98670.15;435366;1256;112862;-41
2023/07/14 19:02:01;;;;;;;5.00;3.80;;;;;;;22.56;47.67;98676.20;435344;1251;108589;-43
2023/07/14 19:12:12;;;;;;;3.80;2.90;;;;;;;22.45;48.25;98680.75;435297;1251;98013;-41
2023/07/14 19:22:24;;;;;;;5.80;2.90;;;;;;;22.25;48.52;98678.40;435251;1251;108409;-43
2023/07/14 19:42:37;;;;;;;7.90;3.80;;;;;;;21.85;49.27;98678.19;435296;1251;112994;-42
2023/07/14 19:52:42;;;;;;;9.90;4.20;;;;;;;21.52;49.85;98675.91;435395;1256;108012;-43
2023/07/14 20:02:50;;;;;;;5.40;4.00;;;;;;;21.25;50.47;98673.31;435240;1257;99262;-43
2023/07/14 20:12:58;;;;;;;5.30;3.80;;;;;;;20.95;51.20;98667.28;435457;1255;108286;-43
2023/07/14 20:23:05;;;;;;;7.90;4.40;;;;;;;20.73;51.83;98666.48;435283;1257;99269;-42
2023/07/14 20:33:20;;;;;;;8.30;4.70;;;;;;;20.63;52.31;98660.28;435296;1251;111453;-42
2023/07/14 20:43:30;;;;;;;7.70;5.00;;;;;;;20.54;52.39;98663.89;435278;1254;107945;-41
2023/07/14 20:53:37;;;;;;;8.00;5.10;;;;;;;20.36;52.76;98660.79;435500;1251;98974;-41
2023/07/14 21:13:55;;;;;;;7.00;4.40;;;;;;;19.98;53.74;98662.80;435525;1255;98819;-42
2023/07/14 21:24:01;;;;;;;11.90;5.40;;;;;;;19.94;54.25;98658.71;435184;1251;112265;-41
2023/07/14 21:34:10;;;;;;;13.40;6.60;;;;;;;19.76;54.50;98661.54;435335;1256;108444;-41
2023/07/14 21:44:17;;;;;;;10.00;5.40;;;;;;;19.66;55.13;98658.52;435244;1251;99370;-41
2023/07/14 21:54:24;;;;;;;6.10;4.40;;;;;;;19.66;55.33;98651.75;435231;1251;107552;-41
2023/07/14 22:14:39;;;;;;;7.70;4.30;;;;;;;19.73;55.27;98643.55;435257;1251;111793;-40
2023/07/14 22:24:47;;;;;;;7.20;3.90;;;;;;;19.77;55.33;98643.16;435353;1251;108960;-41
2023/07/14 22:34:54;;;;;;;7.30;3.10;;;;;;;19.88;55.02;98649.09;435309;1251;99215;-42
2023/07/14 22:45:02;;;;;;;7.80;4.20;;;;;;;19.82;54.90;98640.47;435303;1251;108511;-41
2023/07/14 22:55:13;;;;;;;6.10;3.30;;;;;;;19.78;54.84;98630.39;435337;1251;99228;-41
2023/07/14 23:05:21;;;;;;;10.90;3.70;;;;;;;19.70;54.70;98624.27;435116;1256;111196;-41
2023/07/14 23:15:28;;;;;;;3.00;2.80;;;;;;;19.64;54.75;98623.44;435170;1251;107309;-41
2023/07/14 23:25:35;;;;;;;4.60;3.10;;;;;;;19.57;54.67;98621.38;435507;1257;99337;-41
2023/07/14 23:35:43;;;;;;;5.00;3.00;;;;;;;19.36;54.87;98616.27;435372;1251;108645;-42
2023/07/14 23:45:50;;;;;;;3.80;3.50;;;;;;;19.08;55.14;98615.89;435238;1256;98584;-41
2023/07/14 23:55:58;;;;;;;7.20;4.20;;;;;;;18.72;55.66;98615.02;435340;1255;111336;-42
